Time;durP1;ratioP1;P1;durP2;ratioP2;P2;SDS_P1;SDS_P2;PMS_P1;PMS_P2;Temp;Humidity;BMP_temperature;BMP_pressure;BME280_temperature;BME280_humidity;BME280_pressure;Samples;Min_cycle;Max_cycle;Signal;HPM_P1;HPM_P2
2024/01/24 00:02:34;;;;;;;0.40;0.40;;;;;;;9.82;65.53;100290.47;10522463;28;20508;-61
2024/01/24 00:07:36;;;;;;;0.85;0.40;;;;;;;9.83;65.38;100302.63;10522022;27;20040;-62
2024/01/24 00:12:38;;;;;;;0.32;0.20;;;;;;;9.89;65.52;100270.94;10502934;28;20049;-62
2024/01/24 00:17:41;;;;;;;1.08;0.55;;;;;;;9.86;65.58;100268.47;10536611;27;20073;-62
2024/01/24 00:22:43;;;;;;;0.40;0.40;;;;;;;9.88;65.66;100264.03;10486405;28;20048;-62
2024/01/24 00:27:46;;;;;;;0.52;0.30;;;;;;;10.03;65.41;100271.94;10521636;27;20056;-62
2024/01/24 00:32:48;;;;;;;2.67;0.50;;;;;;;10.00;65.69;100253.78;10525292;27;20498;-63
2024/01/24 00:37:50;;;;;;;0.85;0.52;;;;;;;9.94;66.05;100269.78;10520619;28;20589;-63
2024/01/24 00:42:52;;;;;;;3.28;0.50;;;;;;;10.07;65.85;100256.94;10520775;28;20040;-64
2024/01/24 00:47:55;;;;;;;0.20;0.17;;;;;;;10.18;65.38;100238.91;10520564;28;20147;-63
2024/01/24 00:53:06;;;;;;;0.88;0.30;;;;;;;10.25;65.25;100196.69;10521099;28;20462;-63
2024/01/24 00:58:08;;;;;;;0.35;0.30;;;;;;;10.20;65.57;100208.28;10519954;27;20043;-62
2024/01/24 01:03:10;;;;;;;0.30;0.30;;;;;;;10.23;65.45;100218.59;10519309;28;21119;-63
2024/01/24 01:08:12;;;;;;;0.70;0.38;;;;;;;10.35;65.21;100210.09;10501387;28;20402;-63
2024/01/24 01:13:15;;;;;;;0.38;0.30;;;;;;;10.40;64.96;100210.66;10520534;28;20044;-64
2024/01/24 01:18:17;;;;;;;0.52;0.20;;;;;;;10.41;65.32;100194.91;10524847;28;20052;-63
2024/01/24 01:23:19;;;;;;;0.65;0.40;;;;;;;10.45;65.33;100183.38;10526373;28;20040;-63
2024/01/24 01:28:21;;;;;;;0.40;0.25;;;;;;;10.48;65.16;100184.97;10522792;28;20548;-62
2024/01/24 01:33:23;;;;;;;1.00;0.35;;;;;;;10.55;64.85;100188.06;10522583;28;20101;-63
2024/01/24 01:38:25;;;;;;;0.32;0.32;;;;;;;10.50;65.33;100164.81;10518415;28;20071;-63
2024/01/24 01:43:27;;;;;;;0.50;0.50;;;;;;;10.65;65.14;100171.78;10519782;28;20077;-62
2024/01/24 01:48:29;;;;;;;0.20;0.20;;;;;;;10.72;64.89;100173.13;10486349;28;20222;-63
2024/01/24 01:53:38;;;;;;;0.17;0.17;;;;;;;10.83;64.76;100147.19;10521838;28;20042;-63
2024/01/24 01:58:41;;;;;;;0.17;0.17;;;;;;;10.62;65.42;100148.44;10519317;28;20055;-63
2024/01/24 02:03:43;;;;;;;0.08;0.08;;;;;;;10.81;64.96;100143.81;10519116;28;20631;-62
2024/01/24 02:08:46;;;;;;;0.22;0.22;;;;;;;10.79;65.15;100129.97;10521738;28;20040;-63
2024/01/24 02:13:48;;;;;;;0.38;0.38;;;;;;;10.77;65.25;100146.69;10525323;28;20048;-63
2024/01/24 02:18:50;;;;;;;0.20;0.20;;;;;;;10.88;65.08;100123.38;10525581;27;20051;-63
2024/01/24 02:23:53;;;;;;;0.95;0.50;;;;;;;10.88;64.98;100139.94;10527591;27;20044;-63
2024/01/24 02:28:55;;;;;;;0.22;0.22;;;;;;;10.96;64.83;100126.41;10526759;27;20044;-62
2024/01/24 02:33:57;;;;;;;0.22;0.22;;;;;;;10.99;64.95;100110.53;10526654;27;20159;-63
2024/01/24 02:38:59;;;;;;;0.10;0.10;;;;;;;11.03;64.78;100123.31;10524389;27;20084;-62
2024/01/24 02:44:02;;;;;;;0.38;0.38;;;;;;;11.09;64.72;100111.72;10531684;27;20138;-63
2024/01/24 02:49:04;;;;;;;0.20;0.20;;;;;;;11.12;64.89;100106.28;10529395;27;20592;-62
2024/01/24 02:54:06;;;;;;;2.47;0.22;;;;;;;11.06;64.83;100086.56;10525199;27;20052;-62
2024/01/24 02:59:10;;;;;;;0.30;0.25;;;;;;;11.13;64.96;100079.19;10506454;28;20088;-63
2024/01/24 03:04:12;;;;;;;0.20;0.20;;;;;;;11.05;65.23;100058.69;10530906;28;20043;-62
2024/01/24 03:11:37;;;;;;;0.35;0.35;;;;;;;10.85;65.87;100043.28;10545224;27;20133;-63
2024/01/24 03:16:39;;;;;;;0.35;0.35;;;;;;;10.98;65.66;100057.34;10512760;28;20040;-62
2024/01/24 03:21:41;;;;;;;0.52;0.38;;;;;;;11.00;65.79;100070.31;10514178;28;20046;-61
2024/01/24 03:26:43;;;;;;;0.30;0.30;;;;;;;11.13;65.66;100087.84;10514316;28;20044;-62
2024/01/24 03:31:45;;;;;;;0.63;0.30;;;;;;;11.16;65.69;100065.91;10514159;28;20044;-62
2024/01/24 03:36:47;;;;;;;0.20;0.20;;;;;;;11.18;65.62;100049.16;10512729;28;20040;-62
2024/01/24 03:41:49;;;;;;;0.20;0.20;;;;;;;11.27;65.61;100060.88;10495320;28;20164;-62
2024/01/24 03:46:52;;;;;;;1.10;0.32;;;;;;;11.39;65.29;100040.94;10512970;28;20431;-62
2024/01/24 03:51:55;;;;;;;0.30;0.30;;;;;;;11.29;65.80;100038.06;10516197;28;20071;-62
2024/01/24 03:56:57;;;;;;;0.17;0.17;;;;;;;11.41;65.56;100049.53;10512190;28;20410;-61
2024/01/24 04:01:59;;;;;;;1.27;0.43;;;;;;;11.43;65.54;100039.81;10511046;28;20045;-62
2024/01/24 04:07:01;;;;;;;0.30;0.28;;;;;;;11.39;65.85;100033.09;10511730;28;20412;-61
2024/01/24 04:12:04;;;;;;;0.30;0.30;;;;;;;11.49;65.49;100044.69;10511695;28;20052;-62
2024/01/24 04:17:06;;;;;;;0.20;0.20;;;;;;;11.52;65.72;100031.41;10510584;28;20131;-63
2024/01/24 04:22:08;;;;;;;0.35;0.30;;;;;;;11.62;65.56;100019.41;10469770;28;20052;-62
2024/01/24 04:27:11;;;;;;;0.28;0.28;;;;;;;11.63;65.76;100034.19;10483106;28;20080;-61
2024/01/24 04:32:13;;;;;;;0.52;0.38;;;;;;;11.67;65.47;100036.53;10489492;28;20070;-63
2024/01/24 04:37:15;;;;;;;0.40;0.30;;;;;;;11.66;65.86;100040.06;10483705;28;20049;-61
2024/01/24 04:42:17;;;;;;;0.20;0.20;;;;;;;11.65;65.98;100038.41;10481719;28;20139;-61
2024/01/24 04:47:19;;;;;;;0.30;0.30;;;;;;;11.73;65.67;100027.44;10482848;28;20102;-61
2024/01/24 04:52:21;;;;;;;0.20;0.20;;;;;;;11.66;66.13;100041.88;10487075;28;20094;-61
2024/01/24 04:57:23;;;;;;;0.35;0.30;;;;;;;11.85;65.45;100030.13;10486196;28;20052;-62
2024/01/24 05:02:25;;;;;;;0.20;0.20;;;;;;;11.84;65.54;100028.47;10482092;28;20039;-61
2024/01/24 05:07:27;;;;;;;0.43;0.43;;;;;;;11.73;65.88;100004.69;10463373;28;20408;-61
2024/01/24 05:12:29;;;;;;;0.35;0.32;;;;;;;11.92;65.48;100001.75;10467661;28;20044;-61
2024/01/24 05:17:31;;;;;;;0.10;0.10;;;;;;;11.81;65.65;100007.69;10485974;28;20209;-64
2024/01/24 05:22:33;;;;;;;1.00;0.30;;;;;;;11.92;65.71;99991.28;10480466;28;20885;-62
2024/01/24 05:27:36;;;;;;;0.15;0.15;;;;;;;11.96;65.67;99990.97;10462814;28;20044;-62
2024/01/24 05:32:37;;;;;;;0.10;0.10;;;;;;;11.93;66.34;99979.84;10488196;28;20048;-62
2024/01/24 05:37:39;;;;;;;0.70;0.40;;;;;;;11.84;66.40;99965.56;10463020;28;20506;-63
2024/01/24 05:42:41;;;;;;;0.30;0.30;;;;;;;11.86;66.65;99994.28;10485297;28;20080;-63
2024/01/24 05:47:44;;;;;;;0.20;0.20;;;;;;;11.83;66.68;99995.31;10481861;28;20059;-62
2024/01/24 05:52:46;;;;;;;0.20;0.20;;;;;;;11.90;66.82;100011.50;10478541;28;20033;-64
2024/01/24 05:57:48;;;;;;;0.28;0.28;;;;;;;11.73;67.72;100012.56;10479799;28;20079;-62
2024/01/24 06:02:50;;;;;;;1.92;1.42;;;;;;;11.64;68.10;100005.28;10482420;28;20052;-63
2024/01/24 06:07:52;;;;;;;0.22;0.22;;;;;;;11.62;68.02;100019.41;10480172;28;20064;-63
2024/01/24 06:12:54;;;;;;;0.30;0.30;;;;;;;11.71;67.82;100024.91;10479451;28;20044;-62
2024/01/24 06:17:57;;;;;;;0.20;0.20;;;;;;;11.63;68.92;100050.75;10481064;28;20493;-63
2024/01/24 06:22:59;;;;;;;0.47;0.30;;;;;;;11.41;70.17;100034.69;10478853;28;20047;-63
2024/01/24 06:28:01;;;;;;;3.20;1.60;;;;;;;11.38;70.57;100019.16;10480994;28;20051;-63
2024/01/24 06:33:03;;;;;;;2.63;1.40;;;;;;;11.39;70.50;100030.47;10444491;28;20052;-63
2024/01/24 06:38:05;;;;;;;0.40;0.40;;;;;;;11.34;69.91;100028.13;10461330;28;20414;-62
2024/01/24 06:43:07;;;;;;;0.25;0.25;;;;;;;11.25;69.63;100034.75;10478224;28;20056;-62
2024/01/24 06:48:09;;;;;;;0.20;0.20;;;;;;;11.14;68.72;100060.75;10487150;28;20045;-63
2024/01/24 06:53:14;;;;;;;0.57;0.25;;;;;;;11.21;68.15;100080.38;10478184;28;20041;-61
2024/01/24 06:58:17;;;;;;;0.25;0.25;;;;;;;11.20;67.18;100097.03;10477549;28;20056;-61
2024/01/24 07:03:19;;;;;;;0.30;0.30;;;;;;;11.13;67.05;100103.56;10484203;28;20063;-61
2024/01/24 07:08:24;;;;;;;0.25;0.20;;;;;;;11.28;66.69;100088.72;10477811;28;20084;-61
2024/01/24 07:13:26;;;;;;;0.20;0.20;;;;;;;11.18;66.75;100112.00;10483885;28;20094;-62
2024/01/24 07:18:28;;;;;;;0.40;0.40;;;;;;;11.14;66.54;100109.66;10457142;28;20097;-63
2024/01/24 07:23:30;;;;;;;0.20;0.20;;;;;;;11.16;66.39;100111.25;10476726;28;20044;-63
2024/01/24 07:28:32;;;;;;;0.47;0.47;;;;;;;11.16;66.08;100116.47;10459342;28;20060;-63
2024/01/24 07:33:34;;;;;;;0.30;0.30;;;;;;;11.10;66.49;100150.88;10476763;28;20068;-63
2024/01/24 07:38:37;;;;;;;0.20;0.20;;;;;;;11.19;66.21;100163.41;10474015;28;20045;-63
2024/01/24 07:43:40;;;;;;;0.20;0.20;;;;;;;11.29;66.18;100180.25;10478505;28;20132;-63
2024/01/24 07:48:42;;;;;;;0.15;0.15;;;;;;;11.37;66.10;100177.22;10475841;28;20056;-63
2024/01/24 07:53:45;;;;;;;3.55;1.52;;;;;;;11.52;66.23;100183.31;10456884;28;20404;-64
2024/01/24 07:58:48;;;;;;;2.03;0.80;;;;;;;11.60;63.75;100189.75;10487769;28;20489;-63
2024/01/24 08:03:50;;;;;;;1.52;0.38;;;;;;;11.67;60.61;100192.88;10464292;28;20139;-63
2024/01/24 08:08:52;;;;;;;4.30;0.38;;;;;;;11.58;58.22;100183.78;10483697;28;21010;-63
2024/01/24 08:13:56;;;;;;;1.13;0.68;;;;;;;11.63;57.45;100201.84;10481295;28;20072;-63
2024/01/24 08:18:58;;;;;;;3.53;1.77;;;;;;;11.55;55.24;100214.56;10483412;28;20125;-63
2024/01/24 08:24:00;;;;;;;3.90;1.17;;;;;;;11.46;55.03;100221.19;10460726;28;20044;-63
2024/01/24 08:29:02;;;;;;;2.92;0.93;;;;;;;11.64;54.59;100242.84;10483670;28;20117;-63
2024/01/24 08:34:04;;;;;;;5.13;1.35;;;;;;;11.62;52.58;100244.72;10483119;28;20063;-63
2024/01/24 08:39:06;;;;;;;6.15;1.20;;;;;;;11.73;52.96;100250.13;10479742;28;20073;-63
2024/01/24 08:44:09;;;;;;;4.45;1.48;;;;;;;11.67;52.81;100255.75;10480111;28;20041;-63
2024/01/24 08:49:12;;;;;;;4.30;1.42;;;;;;;11.64;52.05;100272.47;10495717;27;20139;-63
2024/01/24 08:54:15;;;;;;;3.78;0.93;;;;;;;11.45;51.76;100256.16;10462194;28;20044;-63
2024/01/24 08:59:18;;;;;;;5.43;1.38;;;;;;;11.50;51.96;100258.53;10480620;28;20048;-62
2024/01/24 09:04:20;;;;;;;5.78;1.55;;;;;;;11.46;51.22;100283.22;10481839;28;20639;-62
2024/01/24 09:09:25;;;;;;;6.03;2.40;;;;;;;11.43;50.34;100278.13;10460771;28;20052;-66
2024/01/24 09:14:27;;;;;;;8.82;2.80;;;;;;;11.42;49.86;100308.72;10483484;28;20044;-64
2024/01/24 09:19:29;;;;;;;5.53;1.27;;;;;;;11.67;51.50;100300.28;10478259;28;20125;-62
2024/01/24 09:24:31;;;;;;;7.35;1.25;;;;;;;11.73;50.69;100308.63;10481484;28;20135;-62
2024/01/24 09:29:33;;;;;;;6.00;1.33;;;;;;;11.87;50.50;100328.78;10480183;28;20558;-66
2024/01/24 09:34:35;;;;;;;7.93;2.35;;;;;;;11.85;50.38;100304.44;10480833;28;20512;-66
2024/01/24 09:39:38;;;;;;;8.73;1.60;;;;;;;12.02;50.81;100352.34;10477320;28;20173;-66
2024/01/24 09:44:42;;;;;;;6.32;1.75;;;;;;;12.24;51.03;100361.53;10461964;28;20497;-67
2024/01/24 09:49:44;;;;;;;6.25;1.77;;;;;;;12.07;51.03;100342.41;10480703;28;20579;-66
2024/01/24 09:54:46;;;;;;;9.48;2.75;;;;;;;12.14;49.98;100350.75;10478898;28;20043;-66
2024/01/24 09:59:48;;;;;;;5.97;1.75;;;;;;;12.12;49.50;100363.97;10459516;28;20052;-66
2024/01/24 10:04:51;;;;;;;7.57;1.75;;;;;;;12.25;50.10;100371.94;10478893;28;20044;-66
2024/01/24 10:10:07;;;;;;;8.90;1.95;;;;;;;12.02;49.84;100367.22;10479261;28;20048;-66
2024/01/24 10:15:10;;;;;;;8.77;2.13;;;;;;;12.03;50.83;100355.78;10476798;28;20045;-66
2024/01/24 10:20:12;;;;;;;7.18;2.20;;;;;;;11.89;51.14;100405.53;10474968;28;20048;-67
2024/01/24 10:25:16;;;;;;;6.35;2.03;;;;;;;12.08;49.87;100414.03;10459012;28;20050;-67
2024/01/24 10:30:22;;;;;;;7.47;2.55;;;;;;;12.12;50.32;100420.78;10458259;28;20046;-67
2024/01/24 10:35:29;;;;;;;7.55;2.90;;;;;;;12.05;50.55;100427.31;10476972;28;20047;-67
2024/01/24 10:40:31;;;;;;;10.82;2.47;;;;;;;12.19;50.88;100424.75;10475206;28;20374;-67
2024/01/24 10:45:39;;;;;;;7.07;2.25;;;;;;;12.24;50.62;100414.81;10478112;28;20037;-67
2024/01/24 10:50:42;;;;;;;6.35;1.92;;;;;;;12.15;50.62;100412.72;10475293;28;20532;-67
2024/01/24 10:55:48;;;;;;;7.35;2.00;;;;;;;12.02;49.30;100398.66;10457813;28;20089;-67
2024/01/24 11:00:51;;;;;;;4.95;1.15;;;;;;;12.08;49.29;100419.28;10474677;28;20480;-68
2024/01/24 11:05:58;;;;;;;10.15;2.75;;;;;;;12.13;47.88;100440.81;10475288;28;20492;-66
2024/01/24 11:11:05;;;;;;;11.73;2.47;;;;;;;12.24;47.43;100427.94;10471834;28;20048;-66
2024/01/24 11:16:25;;;;;;;9.02;2.47;;;;;;;12.35;47.32;100456.19;10454283;28;20040;-66
2024/01/24 11:21:28;;;;;;;9.63;3.23;;;;;;;12.34;48.13;100459.75;10475072;28;20137;-66
2024/01/24 11:26:31;;;;;;;9.82;2.08;;;;;;;12.20;48.06;100447.41;10476598;28;20043;-66
2024/01/24 11:31:41;;;;;;;7.35;1.80;;;;;;;12.21;47.07;100451.75;10479611;28;20407;-66
2024/01/24 11:36:50;;;;;;;6.43;1.90;;;;;;;12.14;47.14;100455.63;10483333;28;20128;-66
2024/01/24 11:41:52;;;;;;;7.70;2.10;;;;;;;12.29;47.70;100473.16;10482770;28;20048;-66
2024/01/24 11:46:54;;;;;;;6.68;2.83;;;;;;;12.56;47.89;100491.63;10482628;28;20063;-67
2024/01/24 11:52:03;;;;;;;9.25;2.08;;;;;;;12.22;44.79;100484.88;10487027;28;20060;-67
2024/01/24 11:57:04;;;;;;;7.57;2.60;;;;;;;12.26;46.90;100509.13;10483739;28;20944;-66
2024/01/24 12:02:07;;;;;;;10.50;2.35;;;;;;;12.24;45.34;100514.47;10485022;28;20048;-66
2024/01/24 12:07:09;;;;;;;11.88;2.63;;;;;;;11.99;45.01;100514.16;10482457;28;20505;-66
2024/01/24 12:12:12;;;;;;;8.52;2.40;;;;;;;12.12;44.80;100520.44;10484574;28;20056;-66
2024/01/24 12:17:15;;;;;;;8.60;2.25;;;;;;;12.27;45.63;100537.06;10481440;28;20044;-67
2024/01/24 12:22:18;;;;;;;7.82;2.85;;;;;;;12.39;45.85;100528.53;10462598;28;20055;-67
2024/01/24 12:27:20;;;;;;;8.25;2.17;;;;;;;12.28;46.33;100528.25;10481037;28;20056;-67
2024/01/24 12:32:22;;;;;;;7.43;2.00;;;;;;;12.06;46.12;100528.63;10480180;28;20057;-67
2024/01/24 12:37:24;;;;;;;11.77;2.85;;;;;;;12.01;45.64;100528.03;10480346;28;20042;-67
2024/01/24 12:42:26;;;;;;;9.40;2.58;;;;;;;11.93;45.89;100517.13;10480330;28;20051;-67
2024/01/24 12:47:29;;;;;;;5.60;1.60;;;;;;;11.94;46.21;100545.06;10462998;28;20045;-68
2024/01/24 12:52:31;;;;;;;4.75;1.85;;;;;;;12.01;46.05;100551.63;10480295;28;20067;-68
2024/01/24 12:57:34;;;;;;;10.93;1.77;;;;;;;11.90;46.09;100547.00;10480734;28;20127;-68
2024/01/24 13:02:38;;;;;;;6.25;2.15;;;;;;;11.80;46.16;100537.13;10482343;28;20037;-68
2024/01/24 13:07:40;;;;;;;11.80;1.75;;;;;;;11.58;45.77;100537.41;10482083;28;20562;-66
2024/01/24 13:12:43;;;;;;;11.68;2.50;;;;;;;11.54;46.11;100554.22;10483011;28;20072;-66
2024/01/24 13:17:46;;;;;;;9.38;2.33;;;;;;;11.59;46.37;100561.84;10477047;28;20054;-66
2024/01/24 13:22:48;;;;;;;12.15;2.72;;;;;;;11.67;46.27;100549.19;10460061;28;20603;-68
2024/01/24 13:27:50;;;;;;;11.93;3.20;;;;;;;11.62;45.82;100552.03;10479629;28;20052;-68
2024/01/24 13:32:52;;;;;;;6.97;2.78;;;;;;;11.67;45.93;100570.16;10479050;28;20085;-68
2024/01/24 13:37:55;;;;;;;16.42;3.08;;;;;;;11.76;45.81;100580.16;10477295;28;20541;-68
2024/01/24 13:42:58;;;;;;;12.57;2.63;;;;;;;11.62;45.02;100578.25;10480299;28;20532;-68
2024/01/24 13:48:02;;;;;;;10.68;2.20;;;;;;;11.60;46.06;100584.53;10476416;28;20458;-68
2024/01/24 13:53:05;;;;;;;10.68;2.58;;;;;;;11.60;45.90;100589.75;10478792;28;20068;-68
2024/01/24 13:58:08;;;;;;;6.63;1.85;;;;;;;11.81;46.38;100599.91;10476937;28;20039;-68
2024/01/24 14:03:10;;;;;;;10.00;2.50;;;;;;;11.75;46.05;100609.88;10477595;28;20587;-67
2024/01/24 14:08:12;;;;;;;11.40;2.45;;;;;;;11.71;45.83;100597.88;10476338;28;20566;-68
2024/01/24 14:13:15;;;;;;;7.28;2.38;;;;;;;11.49;45.75;100618.28;10477161;28;20041;-67
2024/01/24 14:18:18;;;;;;;9.60;3.47;;;;;;;11.51;45.75;100634.75;10479691;28;20456;-68
2024/01/24 14:23:20;;;;;;;11.35;3.72;;;;;;;11.53;46.67;100630.28;10479836;28;20036;-67
2024/01/24 14:28:22;;;;;;;7.65;2.22;;;;;;;11.49;46.72;100666.28;10477338;28;20110;-68
2024/01/24 14:33:24;;;;;;;7.00;2.40;;;;;;;11.31;46.19;100648.91;10476077;28;20045;-67
2024/01/24 14:38:35;;;;;;;15.43;2.88;;;;;;;11.37;45.80;100655.59;10475115;28;20487;-67
2024/01/24 14:43:37;;;;;;;9.65;2.55;;;;;;;11.45;46.08;100680.47;10477531;28;20028;-67
2024/01/24 14:48:39;;;;;;;10.02;2.08;;;;;;;11.37;45.91;100679.16;10476352;28;20041;-67
2024/01/24 14:53:41;;;;;;;9.63;2.17;;;;;;;11.22;46.26;100705.19;10477300;28;20127;-66
2024/01/24 14:58:44;;;;;;;9.73;2.08;;;;;;;11.18;46.31;100708.03;10490512;28;20090;-67
2024/01/24 15:03:47;;;;;;;10.88;3.13;;;;;;;11.23;46.00;100704.25;10478694;28;20135;-67
2024/01/24 15:08:49;;;;;;;10.13;2.45;;;;;;;11.11;46.25;100702.25;10474655;28;20067;-67
2024/01/24 15:13:51;;;;;;;8.75;2.50;;;;;;;11.10;46.54;100724.13;10477827;28;20041;-67
2024/01/24 15:18:53;;;;;;;8.93;2.35;;;;;;;11.07;46.47;100711.19;10474134;28;20041;-66
2024/01/24 15:23:56;;;;;;;10.80;1.90;;;;;;;11.02;47.12;100718.41;10476576;28;20060;-66
2024/01/24 15:28:58;;;;;;;11.38;2.08;;;;;;;11.05;47.13;100722.69;10481002;28;20075;-66
2024/01/24 15:34:03;;;;;;;9.88;3.03;;;;;;;10.92;47.76;100732.84;10474791;28;20043;-66
2024/01/24 15:39:11;;;;;;;8.32;1.85;;;;;;;10.94;47.62;100723.16;10474167;28;20059;-66
2024/01/24 15:44:13;;;;;;;9.38;3.08;;;;;;;10.90;47.83;100734.69;10474136;28;20060;-66
2024/01/24 15:49:15;;;;;;;11.93;2.78;;;;;;;10.86;48.02;100743.63;10474965;28;20044;-66
2024/01/24 15:54:18;;;;;;;12.05;3.25;;;;;;;10.87;48.12;100755.78;10475054;28;20044;-65
2024/01/24 15:59:20;;;;;;;7.97;2.33;;;;;;;10.79;48.04;100760.53;10457272;28;20052;-66
2024/01/24 16:04:22;;;;;;;9.50;2.95;;;;;;;10.65;48.23;100776.03;10474137;28;20052;-66
2024/01/24 16:09:24;;;;;;;8.82;2.30;;;;;;;10.61;48.40;100768.38;10474052;28;20500;-66
2024/01/24 16:14:27;;;;;;;8.02;2.05;;;;;;;10.50;48.77;100777.56;10457197;28;20033;-65
2024/01/24 16:19:29;;;;;;;9.93;2.33;;;;;;;10.42;49.02;100766.63;10483106;28;20053;-65
2024/01/24 16:24:32;;;;;;;11.68;2.63;;;;;;;10.40;48.98;100780.69;10484963;28;20477;-65
2024/01/24 16:29:35;;;;;;;11.80;2.95;;;;;;;10.23;48.98;100804.13;10482219;28;20052;-67
2024/01/24 16:34:37;;;;;;;12.60;2.35;;;;;;;10.33;48.92;100818.50;10482826;28;21106;-62
2024/01/24 16:39:39;;;;;;;14.73;3.95;;;;;;;10.30;48.71;100826.47;10484022;28;20033;-61
2024/01/24 16:44:41;;;;;;;5.47;1.92;;;;;;;10.18;48.90;100825.25;10485871;28;20032;-61
2024/01/24 16:49:43;;;;;;;11.05;2.67;;;;;;;9.95;49.23;100841.06;10487937;28;20053;-64
2024/01/24 16:54:46;;;;;;;6.35;2.15;;;;;;;9.92;49.13;100835.97;10490387;28;20044;-64
2024/01/24 16:59:50;;;;;;;6.78;2.47;;;;;;;9.87;49.09;100839.72;10483245;28;20505;-64
2024/01/24 17:04:52;;;;;;;8.18;2.90;;;;;;;9.81;49.12;100846.03;10482622;28;20750;-64
2024/01/24 17:09:54;;;;;;;10.68;2.63;;;;;;;9.74;49.15;100844.59;10477436;28;20135;-64
2024/01/24 17:14:57;;;;;;;7.72;1.98;;;;;;;9.65;48.97;100851.00;10480947;28;20040;-63
2024/01/24 17:19:59;;;;;;;6.53;2.42;;;;;;;9.54;49.86;100852.38;10464991;28;20524;-63
2024/01/24 17:25:01;;;;;;;10.45;2.50;;;;;;;9.54;49.92;100863.66;10480084;28;20049;-63
2024/01/24 17:30:04;;;;;;;7.07;2.53;;;;;;;9.38;50.19;100870.41;10484802;28;20479;-62
2024/01/24 17:35:06;;;;;;;6.40;2.42;;;;;;;9.37;50.63;100873.09;10487558;28;20041;-62
2024/01/24 17:40:09;;;;;;;9.45;2.85;;;;;;;9.39;50.41;100894.75;10478943;28;20052;-62
2024/01/24 17:45:11;;;;;;;7.47;2.78;;;;;;;9.31;50.77;100896.81;10487908;28;20074;-62
2024/01/24 17:50:13;;;;;;;12.75;4.38;;;;;;;9.35;50.57;100890.56;10477261;28;20567;-61
2024/01/24 17:55:15;;;;;;;10.38;2.13;;;;;;;9.33;50.73;100900.22;10451015;28;20068;-61
2024/01/24 18:00:18;;;;;;;6.78;2.28;;;;;;;9.37;50.73;100912.25;10471824;28;20115;-61
2024/01/24 18:05:20;;;;;;;9.60;2.78;;;;;;;9.39;50.71;100913.03;10475471;28;20390;-61
2024/01/24 18:10:22;;;;;;;9.15;2.72;;;;;;;9.31;50.71;100921.19;10474028;28;20047;-62
2024/01/24 18:15:25;;;;;;;9.27;2.00;;;;;;;9.16;51.09;100926.97;10478541;28;20047;-62
2024/01/24 18:20:32;;;;;;;11.27;3.20;;;;;;;9.24;50.96;100937.16;10475966;28;20044;-62
2024/01/24 18:25:34;;;;;;;9.23;1.98;;;;;;;9.22;51.35;100928.53;10472860;28;20135;-62
2024/01/24 18:30:36;;;;;;;12.65;3.00;;;;;;;9.04;51.42;100924.84;10476152;28;20048;-62
2024/01/24 18:35:38;;;;;;;11.45;3.80;;;;;;;9.08;51.48;100939.47;10474795;28;20098;-62
2024/01/24 18:40:41;;;;;;;12.65;3.10;;;;;;;9.05;51.55;100954.41;10476843;28;20445;-62
2024/01/24 18:45:43;;;;;;;16.15;3.40;;;;;;;9.11;51.61;100955.03;10459162;28;20562;-62
2024/01/24 18:50:46;;;;;;;13.32;3.40;;;;;;;9.18;51.61;100972.13;10478516;28;20074;-62
2024/01/24 18:55:48;;;;;;;8.63;2.22;;;;;;;9.25;51.54;100973.63;10477686;28;20417;-63
2024/01/24 19:00:51;;;;;;;7.50;2.70;;;;;;;9.32;51.63;100982.06;10480273;28;20412;-63
2024/01/24 19:05:53;;;;;;;11.57;3.72;;;;;;;9.32;51.63;100971.63;10441776;28;20432;-63
2024/01/24 19:10:56;;;;;;;16.35;4.57;;;;;;;9.35;51.65;100969.75;10477039;28;20526;-62
2024/01/24 19:15:59;;;;;;;9.77;3.72;;;;;;;9.39;51.51;100971.34;10478660;28;20119;-62
2024/01/24 19:21:01;;;;;;;14.85;2.85;;;;;;;9.35;51.54;100972.34;10460030;28;20060;-62
2024/01/24 19:26:04;;;;;;;10.52;2.33;;;;;;;9.35;51.64;100961.91;10477344;28;20048;-62
2024/01/24 19:31:06;;;;;;;10.25;3.00;;;;;;;9.28;51.76;100959.59;10477800;28;20480;-62
2024/01/24 19:36:09;;;;;;;10.48;2.47;;;;;;;9.30;51.79;100949.97;10476987;28;20044;-63
2024/01/24 19:41:11;;;;;;;12.43;2.78;;;;;;;9.18;52.08;100945.22;10485219;28;20048;-62
2024/01/24 19:46:14;;;;;;;7.75;2.00;;;;;;;9.01;52.42;100952.81;10480837;28;20044;-62
2024/01/24 19:51:16;;;;;;;9.00;2.67;;;;;;;8.99;52.56;100942.44;10465841;28;20436;-62
2024/01/24 19:56:19;;;;;;;7.32;2.38;;;;;;;8.87;52.90;100931.59;10489115;28;20044;-63
2024/01/24 20:01:21;;;;;;;13.20;3.45;;;;;;;8.82;53.00;100936.97;10471029;28;20415;-62
2024/01/24 20:06:23;;;;;;;9.82;2.72;;;;;;;8.85;52.91;100955.97;10492445;28;20044;-62
2024/01/24 20:11:26;;;;;;;12.40;2.95;;;;;;;8.82;53.07;100948.25;10477354;28;20412;-62
2024/01/24 20:16:28;;;;;;;7.32;2.50;;;;;;;8.73;53.31;100966.84;10494237;28;20040;-63
2024/01/24 20:21:30;;;;;;;13.90;3.47;;;;;;;8.70;53.34;100964.34;10491617;28;20497;-63
2024/01/24 20:26:33;;;;;;;8.15;2.50;;;;;;;8.72;53.38;100974.72;10489745;28;20322;-63
2024/01/24 20:31:35;;;;;;;10.02;2.50;;;;;;;8.66;53.46;100967.13;10485862;28;20147;-64
2024/01/24 20:36:37;;;;;;;15.20;3.58;;;;;;;8.45;53.78;100960.03;10465645;28;20043;-63
2024/01/24 20:41:39;;;;;;;12.73;3.08;;;;;;;8.31;54.31;100957.06;10488216;28;20494;-64
2024/01/24 20:46:42;;;;;;;10.95;2.85;;;;;;;8.29;54.25;100970.16;10487793;28;20419;-63
2024/01/24 20:51:47;;;;;;;13.00;2.85;;;;;;;8.20;54.49;100967.84;10495965;28;20061;-63
2024/01/24 20:56:51;;;;;;;10.13;2.78;;;;;;;8.14;54.81;100975.03;10495891;28;20041;-63
2024/01/24 21:01:53;;;;;;;13.20;3.42;;;;;;;7.99;55.36;100971.16;10463994;28;20127;-64
2024/01/24 21:06:55;;;;;;;19.52;5.95;;;;;;;7.97;55.35;100968.59;10468279;28;20056;-63
2024/01/24 21:11:57;;;;;;;11.38;3.63;;;;;;;7.93;55.29;100972.19;10490692;28;20485;-64
2024/01/24 21:17:00;;;;;;;15.57;4.78;;;;;;;7.93;55.20;100980.03;10468581;28;20128;-65
2024/01/24 21:22:03;;;;;;;11.93;4.05;;;;;;;7.87;55.49;100988.03;10495878;28;20500;-65
2024/01/24 21:27:06;;;;;;;13.55;3.92;;;;;;;7.91;55.43;100987.03;10482686;28;20050;-63
2024/01/24 21:32:11;;;;;;;13.48;3.22;;;;;;;7.92;55.51;100996.53;10479105;28;20218;-64
2024/01/24 21:37:13;;;;;;;11.30;3.25;;;;;;;7.95;55.47;100991.25;10487378;28;20040;-63
2024/01/24 21:42:15;;;;;;;13.82;2.80;;;;;;;7.87;55.72;100989.78;10489443;28;20115;-63
2024/01/24 21:47:19;;;;;;;12.48;3.03;;;;;;;7.83;55.79;100983.78;10486039;28;20131;-63
2024/01/24 21:52:21;;;;;;;14.52;3.42;;;;;;;7.86;55.65;100982.84;10489101;28;20407;-63
2024/01/24 21:57:24;;;;;;;8.90;2.55;;;;;;;7.76;55.82;100987.50;10493454;28;20075;-63
2024/01/24 22:02:28;;;;;;;10.38;3.25;;;;;;;7.73;55.91;100992.78;10479549;28;20226;-63
2024/01/24 22:07:30;;;;;;;16.35;3.53;;;;;;;7.79;55.85;101000.41;10480367;28;20052;-63
2024/01/24 22:12:32;;;;;;;12.57;2.90;;;;;;;7.80;55.84;101014.28;10485456;28;20139;-62
2024/01/24 22:17:34;;;;;;;7.82;2.80;;;;;;;7.65;56.32;101000.00;10478401;28;20160;-64
2024/01/24 22:22:37;;;;;;;13.60;3.03;;;;;;;7.72;56.35;100991.09;10487312;28;20049;-62
2024/01/24 22:27:39;;;;;;;12.52;3.38;;;;;;;7.83;55.94;100996.81;10478630;28;20052;-62
2024/01/24 22:32:42;;;;;;;13.35;3.67;;;;;;;7.73;56.45;101010.19;10484423;28;20048;-62
2024/01/24 22:37:45;;;;;;;13.45;3.80;;;;;;;7.77;56.22;101010.03;10477798;28;20578;-63
2024/01/24 22:42:46;;;;;;;9.57;2.25;;;;;;;7.72;56.42;101019.75;10478978;28;20120;-62
2024/01/24 22:47:48;;;;;;;6.57;2.83;;;;;;;7.73;56.43;101023.22;10478143;28;20041;-62
2024/01/24 22:52:50;;;;;;;9.68;2.65;;;;;;;7.77;56.26;101014.41;10483323;28;20052;-62
2024/01/24 22:57:53;;;;;;;9.93;3.50;;;;;;;7.86;56.37;101016.69;10477628;28;20047;-62
2024/01/24 23:02:55;;;;;;;10.15;3.70;;;;;;;7.86;56.41;101020.16;10472744;28;20412;-63
2024/01/24 23:07:58;;;;;;;8.50;1.67;;;;;;;7.88;56.34;101012.28;10477458;28;20084;-62
2024/01/24 23:13:00;;;;;;;10.23;2.15;;;;;;;7.92;56.28;101017.38;10477741;28;20052;-62